• Join FlightAware (Why Join?)
  • Login
  • US Flag 
12:05AM EDT


 

Airport Tracker/Info


-or-


 

Live Flight TrackerFlight Track Log ✈ ASH3770 ✈ 08-Jul-2013 ✈ KORF - KIAD

Flight Track Log - Related Links

Times and Time Zones

All times are in EDT time to prevent confusion due to time zone crossing. See the ASH3770 flight status page for this flight to view local times or setup timezone preferences in your user account.

Time Position Orientation Groundspeed Altitude Reporting Facility
EDT Latitude Longitude Course Direction KTS MPH feet Rate Location/Type
05:23PM 36.8447 -76.2614 223° Southwest 213 245 3,100  Level Washington Center
05:24PM 36.8653 -76.3214 293° West 251 289 5,300 2,520 Climbing Washington Center
05:25PM 37.0864 -76.6033 300° West  Level FlightAware Approximate
05:25PM 36.9086 -76.3944 307° West 264 304 8,200  Level Washington Center
05:26PM 37.1340 -76.7079 300° West  Level FlightAware Approximate
05:26PM 36.9519 -76.4678 306° West 274 315 10,800  Level Washington Center
05:27PM 37.1815 -76.8127 300° West  Level FlightAware Approximate
05:27PM 37.0014 -76.5542 306° West 287 330 12,200  Level Washington Center
05:28PM 37.0589 -76.6486 307° West 315 362 13,900 900 Climbing Washington Center
05:29PM 37.1144 -76.7483 305° West 341 392 14,000  Climbing Washington Center
05:30PM 37.1717 -76.8481 306° West 347 399 14,000  Level Washington Center
05:31PM 37.2292 -76.9456 307° West 352 405 14,000  Level Washington Center
05:32PM 37.2883 -77.0511 305° West 364 419 14,000  Level Washington Center
05:33PM 37.3600 -77.1569 310° West 359 413 14,000  Level Washington Center
05:34PM 37.4319 -77.2394 318° Northwest 359 413 14,000  Level Washington Center
05:35PM 37.5058 -77.3222 318° Northwest 359 413 14,000  Level Washington Center
05:36PM 37.5989 -77.3769 335° Northwest 359 413 14,000 -360 Level Washington Center
05:37PM 37.6900 -77.4261 337° Northwest 359 413 13,400 -780 Descending Washington Center
05:38PM 37.7747 -77.4756 335° Northwest 352 405 12,500 -780 Descending Washington Center
05:39PM 37.8514 -77.5142 338° Northwest 322 371 11,900 -300 Descending Washington Center
05:40PM 37.9258 -77.5556 336° Northwest 303 349 12,000 -180 Climbing Washington Center
05:41PM 38.0033 -77.5261 17° North 267 307 11,600 -720 Descending Washington Center
05:42PM 38.0747 -77.4961 18° North 274 315 10,600 -840 Descending Washington Center
05:43PM 38.1544 -77.4614 19° North 284 327 10,000 -360 Descending Washington Center
05:44PM 38.2281 -77.4181 25° Northeast 289 333 10,000  Level Washington Center
05:45PM 38.3017 -77.3750 25° Northeast 289 333 10,000 -720 Level Washington Center
05:46PM 38.3792 -77.3556 11° North 289 333 8,600 -1,500 Descending Washington Center
05:47PM 38.4583 -77.3603 357° North 277 319 7,100 -1,320 Descending Washington Center
05:48PM 38.5314 -77.3644 357° North 271 312 6,000 -600 Descending Washington Center
05:49PM 38.6064 -77.3664 359° North 271 312 6,000 -720 Level Washington Center
05:50PM 38.6878 -77.3631 North 271 312 4,700 -900 Descending Washington Center
05:51PM 38.7833 -77.3500 North 231 266 4,000 -300 Descending Potomac TRACON
05:52PM 38.8500 -77.3500 360° North 230 265 4,000  Level Potomac TRACON
05:53PM 38.9167 -77.3500 360° North 219 252 4,000  Level Potomac TRACON
05:54PM 38.9667 -77.3500 360° North 198 228 4,000 -420 Level Potomac TRACON
05:55PM 39.0167 -77.3500 360° North 194 223 3,300 -720 Descending Potomac TRACON